Time;durP1;ratioP1;P1;durP2;ratioP2;P2;SDS_P1;SDS_P2;PMS_P1;PMS_P2;Temp;Humidity;BMP_temperature;BMP_pressure;BME280_temperature;BME280_humidity;BME280_pressure;Samples;Min_cycle;Max_cycle;Signal;HPM_P1;HPM_P2
2022/12/13 00:00:56;;;;;;;66.30;30.00;;;;;;;-3.22;66.23;99544.97;10428368;28;20055;-59
2022/12/13 00:05:57;;;;;;;60.85;30.67;;;;;;;-3.04;66.17;99539.66;10428958;28;20492;-59
2022/12/13 00:11:05;;;;;;;56.03;27.63;;;;;;;-2.98;66.11;99537.03;10444558;28;20053;-59
2022/12/13 00:16:11;;;;;;;56.22;27.30;;;;;;;-2.84;65.68;99535.16;10427339;28;21145;-59
2022/12/13 00:21:16;;;;;;;59.88;29.88;;;;;;;-3.05;65.74;99533.69;10431620;28;20055;-59
2022/12/13 00:26:21;;;;;;;58.97;29.60;;;;;;;-2.97;65.98;99533.59;10430437;28;20052;-59
2022/12/13 00:31:24;;;;;;;54.67;28.83;;;;;;;-2.64;65.68;99525.50;10454298;28;20049;-59
2022/12/13 00:36:47;;;;;;;62.80;31.05;;;;;;;-2.58;65.27;99535.66;10444744;28;20237;-59
2022/12/13 00:41:49;;;;;;;60.35;28.77;;;;;;;-2.74;65.35;99525.63;10427240;28;20057;-59
2022/12/13 00:46:52;;;;;;;58.90;27.75;;;;;;;-2.98;65.82;99519.13;10427733;28;20049;-59
2022/12/13 00:51:53;;;;;;;60.50;28.10;;;;;;;-2.89;66.12;99519.00;10428259;28;20049;-61
2022/12/13 00:56:55;;;;;;;51.28;26.30;;;;;;;-2.71;65.71;99508.53;10433421;28;20049;-59
2022/12/13 01:01:57;;;;;;;59.75;27.40;;;;;;;-2.77;65.28;99507.78;10433574;28;20060;-59
2022/12/13 01:06:59;;;;;;;56.78;27.02;;;;;;;-2.74;65.54;99508.59;10436125;28;20053;-59
2022/12/13 01:12:04;;;;;;;51.75;25.60;;;;;;;-2.75;65.26;99511.16;10445049;28;20049;-59
2022/12/13 01:17:06;;;;;;;57.00;27.25;;;;;;;-3.00;65.87;99500.38;10436958;28;20048;-59
2022/12/13 01:22:10;;;;;;;54.00;25.98;;;;;;;-2.93;65.67;99507.09;10434443;28;20057;-59
2022/12/13 01:27:12;;;;;;;53.85;28.05;;;;;;;-2.92;65.72;99506.25;10437634;28;20572;-59
2022/12/13 01:32:13;;;;;;;56.92;27.27;;;;;;;-2.97;65.61;99502.91;10435079;28;20057;-59
2022/12/13 01:37:16;;;;;;;57.42;28.05;;;;;;;-2.90;65.54;99507.09;10433927;28;20056;-59
2022/12/13 01:42:18;;;;;;;63.42;31.38;;;;;;;-2.66;65.54;99506.75;10432864;28;20049;-59
2022/12/13 01:47:23;;;;;;;62.70;31.65;;;;;;;-2.51;65.08;99508.28;10434235;28;20045;-59
2022/12/13 01:52:27;;;;;;;56.05;27.95;;;;;;;-2.58;65.26;99507.50;10440057;28;20045;-60
2022/12/13 01:57:30;;;;;;;58.90;27.45;;;;;;;-2.52;65.56;99514.25;10439362;28;20056;-59
2022/12/13 02:02:32;;;;;;;51.40;25.13;;;;;;;-2.70;65.62;99502.56;10433937;28;20061;-59
2022/12/13 02:07:37;;;;;;;55.80;28.52;;;;;;;-2.69;65.53;99501.66;10432188;28;20056;-59
2022/12/13 02:12:40;;;;;;;58.53;27.20;;;;;;;-2.76;65.44;99501.78;10433033;28;20045;-59
2022/12/13 02:18:29;;;;;;;50.83;24.92;;;;;;;-3.00;66.04;99500.38;10433202;28;20051;-59
2022/12/13 02:23:54;;;;;;;49.53;23.75;;;;;;;-2.91;65.75;99505.38;10406543;28;20049;-59
2022/12/13 02:29:44;;;;;;;49.97;24.08;;;;;;;-2.91;65.22;99493.44;10455028;28;20088;-59
2022/12/13 02:35:13;;;;;;;59.65;25.98;;;;;;;-3.00;65.28;99492.72;10428259;28;20515;-59
2022/12/13 02:40:25;;;;;;;57.35;27.63;;;;;;;-2.98;65.41;99494.38;10433694;28;20394;-59
2022/12/13 02:45:37;;;;;;;55.22;26.77;;;;;;;-2.87;65.67;99484.00;10432261;28;20055;-59
2022/12/13 02:50:40;;;;;;;52.70;27.20;;;;;;;-3.05;65.41;99479.97;10438239;28;20051;-59
2022/12/13 02:55:42;;;;;;;42.22;21.52;;;;;;;-3.37;65.77;99478.66;10431763;28;20453;-60
2022/12/13 03:00:43;;;;;;;43.35;22.20;;;;;;;-3.26;65.56;99477.66;10431946;28;20052;-59
2022/12/13 03:06:29;;;;;;;42.67;22.60;;;;;;;-3.14;65.05;99482.63;10442104;28;20060;-60
2022/12/13 03:17:40;;;;;;;42.70;21.80;;;;;;;-3.44;65.21;99488.09;10437353;28;20106;-60
2022/12/13 03:22:41;;;;;;;49.40;23.23;;;;;;;-3.32;64.89;99477.75;10477988;28;20591;-59
2022/12/13 03:27:43;;;;;;;47.65;24.38;;;;;;;-3.47;64.77;99488.16;10447624;28;20063;-59
2022/12/13 03:32:45;;;;;;;47.50;24.17;;;;;;;-3.54;64.88;99485.66;10437240;28;20151;-59
2022/12/13 03:37:47;;;;;;;43.90;22.60;;;;;;;-3.66;65.04;99481.53;10446657;28;20059;-59
2022/12/13 03:48:21;;;;;;;42.85;21.52;;;;;;;-3.76;64.86;99485.03;2946962;26;20115;-87
2022/12/13 03:53:25;;;;;;;45.33;23.17;;;;;;;-3.75;64.92;99476.47;10379390;28;20505;-87
2022/12/13 03:58:36;;;;;;;41.50;22.00;;;;;;;-3.90;65.16;99479.19;10379957;28;20045;-87
2022/12/13 04:03:47;;;;;;;39.90;20.42;;;;;;;-3.78;65.19;99487.59;10355574;28;20163;-88
2022/12/13 04:08:51;;;;;;;36.42;20.15;;;;;;;-3.69;64.81;99479.00;10369345;28;20057;-86
2022/12/13 04:13:57;;;;;;;38.80;20.25;;;;;;;-3.58;64.94;99481.44;10371539;28;20065;-88
2022/12/13 04:19:01;;;;;;;36.88;20.52;;;;;;;-3.41;64.64;99482.97;10372510;28;20746;-86
2022/12/13 04:24:08;;;;;;;38.67;19.70;;;;;;;-3.35;64.71;99482.03;10373499;28;20058;-88
2022/12/13 04:29:11;;;;;;;38.05;18.58;;;;;;;-3.21;64.25;99490.41;10374071;28;20053;-87
2022/12/13 04:34:27;;;;;;;36.42;19.88;;;;;;;-3.10;64.43;99484.28;10372446;28;20072;-87
2022/12/13 04:39:37;;;;;;;39.58;19.60;;;;;;;-3.24;64.02;99486.16;10371106;28;20085;-87
2022/12/13 04:44:53;;;;;;;33.22;18.73;;;;;;;-3.37;64.51;99489.75;10374639;28;20054;-87
2022/12/13 04:50:01;;;;;;;39.50;20.27;;;;;;;-3.43;64.02;99488.94;10357841;28;20069;-88
2022/12/13 04:55:03;;;;;;;36.63;19.77;;;;;;;-3.32;64.23;99493.06;10373805;28;20069;-87
2022/12/13 05:00:10;;;;;;;33.85;18.80;;;;;;;-3.30;63.60;99491.34;10374073;28;20061;-88
2022/12/13 05:05:13;;;;;;;38.97;19.73;;;;;;;-3.61;63.93;99484.03;10371598;28;20132;-86
2022/12/13 05:10:16;;;;;;;38.50;20.42;;;;;;;-3.39;64.29;99482.94;10372551;28;20060;-87
2022/12/13 05:15:36;;;;;;;39.35;20.63;;;;;;;-3.56;63.79;99487.38;10373327;28;20065;-87
2022/12/13 05:20:38;;;;;;;38.15;19.70;;;;;;;-3.44;63.99;99479.56;10370607;28;20422;-87
2022/12/13 05:25:46;;;;;;;37.95;19.88;;;;;;;-3.20;63.79;99476.78;10371734;28;20116;-88
2022/12/13 05:30:50;;;;;;;39.92;20.63;;;;;;;-3.04;63.52;99481.66;10365695;28;20089;-87
2022/12/13 05:36:07;;;;;;;36.25;19.10;;;;;;;-3.05;63.63;99464.63;10372119;28;20092;-87
2022/12/13 05:41:16;;;;;;;35.08;19.13;;;;;;;-3.10;63.54;99457.88;10371637;28;20096;-86
2022/12/13 05:46:18;;;;;;;34.88;18.25;;;;;;;-3.01;63.52;99453.50;10373116;28;20511;-87
2022/12/13 05:51:20;;;;;;;35.45;18.23;;;;;;;-3.08;63.42;99456.97;10378344;28;20053;-86
2022/12/13 05:56:22;;;;;;;38.35;20.70;;;;;;;-3.38;63.48;99456.50;10378283;28;20438;-86
2022/12/13 06:01:23;;;;;;;38.28;19.30;;;;;;;-3.34;63.52;99463.28;10378274;28;20057;-86
2022/12/13 06:06:27;;;;;;;38.92;20.50;;;;;;;-3.53;63.59;99466.91;10376738;28;20391;-85
2022/12/13 06:11:29;;;;;;;39.75;20.02;;;;;;;-3.92;63.57;99479.22;10379777;28;20137;-86
2022/12/13 06:16:32;;;;;;;41.35;20.90;;;;;;;-3.94;64.16;99467.31;10374922;28;20064;-85
2022/12/13 06:21:43;;;;;;;37.85;20.35;;;;;;;-4.04;63.88;99465.72;10379543;28;20057;-85
2022/12/13 06:26:58;;;;;;;43.80;21.40;;;;;;;-4.23;64.13;99459.06;10376255;28;20061;-84
2022/12/13 06:32:10;;;;;;;39.28;20.33;;;;;;;-3.97;64.57;99464.78;10377594;28;20141;-87
2022/12/13 06:37:15;;;;;;;39.95;20.70;;;;;;;-3.79;63.88;99464.59;10374534;28;20050;-86
2022/12/13 06:42:18;;;;;;;37.45;20.92;;;;;;;-3.79;63.99;99462.03;10374076;28;20058;-84
2022/12/13 06:47:29;;;;;;;44.58;21.58;;;;;;;-3.77;63.93;99461.19;10372582;28;20104;-86
2022/12/13 06:52:33;;;;;;;42.28;21.30;;;;;;;-3.67;63.77;99462.78;10377378;28;20057;-84
2022/12/13 06:57:35;;;;;;;40.80;22.33;;;;;;;-3.65;63.77;99467.03;10376707;28;20072;-83
2022/12/13 07:02:39;;;;;;;41.45;21.67;;;;;;;-3.83;63.35;99466.34;10376322;28;20053;-84
2022/12/13 07:08:06;;;;;;;41.05;21.58;;;;;;;-4.14;63.40;99464.94;10376338;28;20462;-84
2022/12/13 07:13:09;;;;;;;43.10;22.70;;;;;;;-4.09;64.06;99464.88;10375220;28;20081;-84
2022/12/13 07:18:11;;;;;;;45.05;22.75;;;;;;;-4.09;63.72;99464.88;10373823;28;20133;-83
2022/12/13 07:23:13;;;;;;;41.60;22.52;;;;;;;-4.22;64.04;99463.31;10375651;28;20061;-86
2022/12/13 07:28:15;;;;;;;46.70;23.98;;;;;;;-4.20;63.95;99464.97;10374509;28;20730;-86
2022/12/13 07:33:17;;;;;;;49.55;23.50;;;;;;;-4.06;63.73;99475.09;10376268;28;20056;-86
2022/12/13 07:38:23;;;;;;;46.05;23.95;;;;;;;-4.18;63.79;99470.91;10373307;28;20553;-86
2022/12/13 07:43:25;;;;;;;49.90;24.02;;;;;;;-4.02;63.86;99467.41;10376917;28;20643;-86
2022/12/13 07:48:30;;;;;;;46.33;23.67;;;;;;;-4.03;63.74;99475.03;10375032;28;20092;-84
2022/12/13 07:53:33;;;;;;;44.53;23.65;;;;;;;-4.14;63.53;99476.88;10371753;28;20123;-86
2022/12/13 07:59:06;;;;;;;48.88;23.70;;;;;;;-4.29;63.85;99482.06;10377701;28;20165;-86
2022/12/13 08:04:11;;;;;;;44.17;22.90;;;;;;;-4.40;63.98;99479.59;10372290;28;20129;-83
2022/12/13 08:09:15;;;;;;;46.58;24.35;;;;;;;-4.35;63.80;99477.88;10369249;28;20140;-88
2022/12/13 08:14:16;;;;;;;48.15;23.52;;;;;;;-4.23;63.89;99477.78;10370693;28;20061;-87
2022/12/13 08:19:19;;;;;;;48.85;24.85;;;;;;;-4.39;63.82;99473.66;10371689;28;20049;-86
2022/12/13 08:24:30;;;;;;;48.65;23.27;;;;;;;-4.45;63.70;99468.59;10375322;28;20139;-90
2022/12/13 08:29:40;;;;;;;46.05;24.13;;;;;;;-4.34;63.92;99471.06;10375676;28;20061;-86
2022/12/13 08:34:42;;;;;;;49.53;24.13;;;;;;;-4.17;64.03;99474.31;10371090;28;20049;-85
2022/12/13 08:39:44;;;;;;;45.63;24.25;;;;;;;-4.15;63.59;99476.00;10372851;28;20053;-87
2022/12/13 08:44:48;;;;;;;44.13;22.40;;;;;;;-4.09;63.35;99470.84;10371522;28;20057;-86
2022/12/13 08:49:52;;;;;;;44.70;22.45;;;;;;;-3.77;63.60;99468.00;10374318;28;20057;-85
2022/12/13 08:54:56;;;;;;;39.05;21.35;;;;;;;-3.62;63.47;99472.09;10377962;28;20065;-86
2022/12/13 08:59:59;;;;;;;43.55;23.00;;;;;;;-3.17;62.66;99462.22;10373278;28;20049;-84
2022/12/13 09:05:03;;;;;;;40.75;21.90;;;;;;;-3.06;62.08;99464.66;10373090;28;20083;-86
2022/12/13 09:10:12;;;;;;;42.75;21.35;;;;;;;-3.23;62.08;99466.56;10375854;28;20150;-86
2022/12/13 09:16:12;;;;;;;40.40;20.83;;;;;;;-3.45;61.24;99475.34;10361992;28;20049;-85
2022/12/13 09:21:50;;;;;;;42.88;22.23;;;;;;;-3.54;61.98;99489.06;10376669;28;20065;-85
2022/12/13 09:27:09;;;;;;;38.15;20.40;;;;;;;-3.44;62.05;99488.09;10378267;28;20057;-84
2022/12/13 09:32:48;;;;;;;37.90;20.08;;;;;;;-3.58;62.65;99497.63;10382128;28;20061;-83
2022/12/13 09:38:00;;;;;;;40.83;20.55;;;;;;;-3.28;62.21;99494.72;10378256;28;20103;-85
2022/12/13 09:43:24;;;;;;;38.78;19.88;;;;;;;-3.15;61.35;99487.78;10381708;28;20061;-85
2022/12/13 09:48:45;;;;;;;34.72;19.65;;;;;;;-3.42;61.55;99494.03;10353530;28;20053;-85
2022/12/13 09:53:53;;;;;;;40.75;21.25;;;;;;;-3.46;62.12;99496.63;10378792;28;20057;-85
2022/12/13 09:59:13;;;;;;;37.50;19.67;;;;;;;-3.15;61.64;99492.88;10377952;28;20064;-85
2022/12/13 10:04:17;;;;;;;38.08;19.95;;;;;;;-2.97;61.36;99483.28;10378523;28;20422;-85
2022/12/13 10:09:49;;;;;;;36.83;20.55;;;;;;;-2.71;60.58;99488.06;10377567;28;20105;-85
2022/12/13 10:15:02;;;;;;;35.50;19.23;;;;;;;-2.51;60.31;99473.25;10375593;28;20080;-85
2022/12/13 10:20:17;;;;;;;35.10;19.80;;;;;;;-2.67;60.13;99456.44;10376904;28;20144;-84
2022/12/13 10:25:49;;;;;;;35.75;20.00;;;;;;;-2.43;59.97;99455.25;10374219;28;20070;-85
2022/12/13 10:30:54;;;;;;;32.85;18.77;;;;;;;-2.45;60.17;99459.53;10368272;28;20064;-84
2022/12/13 10:42:39;;;;;;;36.80;19.55;;;;;;;-2.86;60.65;99422.59;10375760;28;20053;-85
2022/12/13 10:47:45;;;;;;;35.75;19.23;;;;;;;-2.77;60.13;99426.72;10375774;28;20152;-85
2022/12/13 10:52:51;;;;;;;36.13;18.90;;;;;;;-2.65;60.41;99431.66;10373683;28;20515;-84
2022/12/13 10:58:08;;;;;;;32.58;17.85;;;;;;;-2.76;60.39;99427.56;10374382;28;20473;-86
2022/12/13 11:03:50;;;;;;;33.55;19.40;;;;;;;-2.91;59.87;99420.94;10375520;28;20084;-85
2022/12/13 11:09:05;;;;;;;34.35;17.98;;;;;;;-2.73;60.24;99418.13;10377808;28;20053;-85
2022/12/13 11:14:29;;;;;;;34.88;17.75;;;;;;;-2.70;59.79;99412.97;10373084;28;20549;-86
2022/12/13 11:19:43;;;;;;;29.95;16.88;;;;;;;-2.83;60.13;99403.78;10366168;28;20144;-85
2022/12/13 11:24:50;;;;;;;31.30;17.45;;;;;;;-2.89;60.13;99394.50;10374592;28;20067;-85
2022/12/13 11:30:26;;;;;;;32.08;17.20;;;;;;;-2.70;59.24;99392.50;10376608;28;20068;-85
2022/12/13 11:36:24;;;;;;;31.90;17.55;;;;;;;-2.57;59.56;99390.59;10376044;28;20045;-85
2022/12/13 11:41:48;;;;;;;29.90;15.95;;;;;;;-2.53;59.19;99379.44;10373898;28;20050;-85
2022/12/13 11:47:05;;;;;;;29.25;16.23;;;;;;;-2.57;59.33;99373.50;10374204;28;20069;-85
2022/12/13 11:52:18;;;;;;;32.25;17.25;;;;;;;-2.26;59.65;99349.09;10373162;28;20061;-85
2022/12/13 11:58:06;;;;;;;31.02;16.52;;;;;;;-2.34;58.27;99350.09;10371822;28;20050;-85
2022/12/13 12:03:47;;;;;;;29.00;15.88;;;;;;;-2.30;58.75;99319.28;10348261;28;20068;-85
2022/12/13 12:09:03;;;;;;;30.00;16.52;;;;;;;-2.13;59.19;99331.78;10364336;28;20256;-86
2022/12/13 12:14:34;;;;;;;29.38;16.63;;;;;;;-2.10;58.75;99327.44;10372770;28;20403;-86
2022/12/13 12:19:39;;;;;;;27.10;15.48;;;;;;;-2.02;58.91;99333.28;10373084;28;20058;-85
2022/12/13 12:24:53;;;;;;;29.73;16.10;;;;;;;-1.89;59.10;99327.91;10373350;28;20570;-86
2022/12/13 12:30:18;;;;;;;25.83;15.73;;;;;;;-1.85;57.89;99321.84;10372164;28;20050;-87
2022/12/13 12:36:01;;;;;;;28.92;17.20;;;;;;;-1.63;57.81;99305.16;10374609;28;20057;-86
2022/12/13 12:41:28;;;;;;;28.88;16.20;;;;;;;-1.74;57.80;99296.88;10373329;28;20080;-86
2022/12/13 12:47:00;;;;;;;25.08;14.95;;;;;;;-1.70;58.03;99296.78;10366478;28;20069;-85
2022/12/13 12:52:56;;;;;;;26.45;15.38;;;;;;;-1.66;57.54;99292.44;10368452;28;20049;-82
2022/12/13 12:58:18;;;;;;;27.48;15.20;;;;;;;-1.62;56.91;99294.06;10369814;28;20068;-83
2022/12/13 13:03:25;;;;;;;26.90;14.38;;;;;;;-1.58;57.62;99298.25;10372092;28;20455;-84
2022/12/13 13:08:59;;;;;;;24.63;14.52;;;;;;;-1.44;57.12;99285.97;10369957;28;20470;-86
2022/12/13 13:14:30;;;;;;;24.73;13.40;;;;;;;-1.44;56.79;99289.38;10366933;28;20435;-85
2022/12/13 13:19:46;;;;;;;27.58;13.77;;;;;;;-1.22;56.85;99277.75;10377330;28;20111;-85
2022/12/13 13:31:11;;;;;;;28.02;15.38;;;;;;;-1.32;57.50;99272.88;10368659;28;20046;-84
2022/12/13 13:36:42;;;;;;;28.10;15.07;;;;;;;-1.37;57.37;99278.09;10371404;28;20057;-85
2022/12/13 13:42:04;;;;;;;26.00;15.07;;;;;;;-1.43;57.16;99282.53;10368779;28;20148;-85
2022/12/13 13:47:18;;;;;;;24.70;14.60;;;;;;;-1.47;57.18;99268.09;10373315;28;20053;-85
2022/12/13 13:52:24;;;;;;;25.75;14.45;;;;;;;-1.35;57.70;99275.53;10368791;28;20160;-85
2022/12/13 13:57:34;;;;;;;27.38;14.70;;;;;;;-1.31;57.41;99277.13;10370261;28;20049;-86
2022/12/13 14:03:25;;;;;;;27.63;14.30;;;;;;;-1.30;57.38;99283.94;10371159;28;20061;-85
2022/12/13 14:09:12;;;;;;;24.70;13.63;;;;;;;-1.42;56.46;99279.94;10373662;28;20492;-87
2022/12/13 14:14:57;;;;;;;27.48;13.25;;;;;;;-1.55;56.93;99275.13;10375095;28;20859;-87
2022/12/13 14:20:20;;;;;;;23.58;12.65;;;;;;;-1.81;56.30;99277.34;10376834;28;20101;-88
2022/12/13 14:25:53;;;;;;;21.70;11.65;;;;;;;-1.73;56.43;99278.03;10373991;28;20061;-84
2022/12/13 14:30:56;;;;;;;21.90;13.27;;;;;;;-1.61;57.24;99273.50;10374031;28;20712;-84
2022/12/13 14:36:03;;;;;;;22.23;12.48;;;;;;;-1.77;57.01;99277.28;10368745;28;20069;-85
2022/12/13 14:41:07;;;;;;;23.23;12.98;;;;;;;-1.76;57.40;99278.97;10374762;28;20050;-85
2022/12/13 14:46:17;;;;;;;24.25;13.23;;;;;;;-1.68;57.35;99284.78;10372708;28;20064;-87
2022/12/13 14:51:32;;;;;;;23.27;12.37;;;;;;;-1.91;56.51;99294.66;10369367;28;21050;-86
2022/12/13 14:56:54;;;;;;;22.27;13.15;;;;;;;-1.93;57.17;99290.41;10377007;28;20116;-86
2022/12/13 15:02:02;;;;;;;22.92;14.68;;;;;;;-2.04;58.08;99281.22;10367682;28;20368;-85
2022/12/13 15:07:07;;;;;;;46.55;29.30;;;;;;;-2.05;58.04;99264.19;10370702;28;20057;-86
2022/12/13 15:12:15;;;;;;;26.40;15.95;;;;;;;-2.00;58.17;99264.09;10370117;28;20057;-86
2022/12/13 15:17:30;;;;;;;21.80;12.68;;;;;;;-2.06;58.32;99266.75;10362902;28;20081;-87
2022/12/13 15:22:32;;;;;;;23.92;13.85;;;;;;;-2.05;58.12;99250.53;10373061;28;20115;-87
2022/12/13 15:27:34;;;;;;;25.95;13.25;;;;;;;-2.14;58.20;99255.81;10373797;28;20217;-87
2022/12/13 15:33:07;;;;;;;23.08;12.43;;;;;;;-2.10;57.99;99245.47;10366415;28;20049;-87
2022/12/13 15:38:17;;;;;;;21.83;12.48;;;;;;;-2.09;58.27;99242.06;10370132;28;20050;-87
2022/12/13 15:43:44;;;;;;;21.50;13.15;;;;;;;-2.22;57.90;99247.44;10371648;28;20108;-85
2022/12/13 15:48:48;;;;;;;23.40;13.77;;;;;;;-2.28;58.11;99250.97;10370323;28;20064;-87
2022/12/13 15:54:06;;;;;;;24.27;13.07;;;;;;;-2.32;58.30;99236.53;10374207;28;20064;-87
2022/12/13 15:59:42;;;;;;;22.83;13.27;;;;;;;-2.36;57.70;99240.03;10373426;28;20108;-86
2022/12/13 16:04:46;;;;;;;23.05;13.15;;;;;;;-2.40;58.23;99238.38;10348205;28;20058;-87
2022/12/13 16:09:53;;;;;;;24.50;13.50;;;;;;;-2.60;58.40;99235.34;10374147;28;20169;-86
2022/12/13 16:15:18;;;;;;;22.83;13.27;;;;;;;-2.62;58.26;99226.00;10370945;28;20057;-86
2022/12/13 16:20:30;;;;;;;22.15;13.35;;;;;;;-2.66;58.82;99216.69;10370515;28;20434;-85
2022/12/13 16:25:40;;;;;;;25.65;14.20;;;;;;;-2.81;58.82;99219.56;10371589;28;20053;-86
2022/12/13 16:30:50;;;;;;;24.73;13.02;;;;;;;-2.92;58.98;99215.44;10359758;28;20160;-84
2022/12/13 16:35:58;;;;;;;26.45;13.32;;;;;;;-2.91;59.15;99219.69;10372324;28;20514;-84
2022/12/13 16:41:00;;;;;;;24.83;13.32;;;;;;;-2.99;59.05;99208.75;10371737;28;20057;-84
2022/12/13 16:46:20;;;;;;;24.65;13.88;;;;;;;-3.12;59.42;99203.88;10373699;28;20057;-84
2022/12/13 16:51:50;;;;;;;23.88;13.57;;;;;;;-3.07;59.54;99204.63;10365943;28;20057;-83
2022/12/13 16:56:54;;;;;;;23.38;14.13;;;;;;;-3.10;59.54;99186.78;10372439;28;20061;-85
2022/12/13 17:02:16;;;;;;;27.15;15.00;;;;;;;-3.06;59.74;99186.69;10359362;28;20136;-86
2022/12/13 17:07:49;;;;;;;30.67;16.48;;;;;;;-3.20;60.00;99195.50;10373228;28;20038;-85
2022/12/13 17:13:08;;;;;;;31.60;16.50;;;;;;;-3.22;60.40;99197.22;10375233;28;20140;-83
2022/12/13 17:18:10;;;;;;;31.08;15.93;;;;;;;-3.05;60.48;99193.50;10380240;28;20123;-84
2022/12/13 17:23:27;;;;;;;30.23;16.88;;;;;;;-2.89;60.13;99181.28;10373958;28;20157;-84
2022/12/13 17:28:36;;;;;;;34.77;18.83;;;;;;;-2.96;60.41;99180.53;10368945;28;20060;-84
2022/12/13 17:34:08;;;;;;;36.00;17.85;;;;;;;-2.88;60.42;99177.88;10366834;28;20061;-84
2022/12/13 17:39:14;;;;;;;39.65;20.05;;;;;;;-2.89;60.52;99177.03;10365943;28;20053;-84
2022/12/13 17:44:18;;;;;;;37.28;19.50;;;;;;;-3.10;60.73;99166.34;10375595;28;20093;-84
2022/12/13 17:49:22;;;;;;;43.67;21.13;;;;;;;-3.24;61.03;99179.31;10367395;28;20061;-84
2022/12/13 17:54:28;;;;;;;42.28;21.05;;;;;;;-3.34;61.22;99182.06;10380051;28;20058;-84
2022/12/13 17:59:34;;;;;;;40.13;21.60;;;;;;;-3.28;61.37;99187.91;10366244;28;20053;-84
2022/12/13 18:04:44;;;;;;;39.67;20.83;;;;;;;-3.36;61.39;99182.09;10365092;28;20068;-84
2022/12/13 18:09:52;;;;;;;42.67;20.95;;;;;;;-3.33;61.65;99174.38;10373464;28;20049;-84
2022/12/13 18:14:56;;;;;;;42.97;21.90;;;;;;;-3.51;62.00;99163.59;10354800;28;20065;-85
2022/12/13 18:26:05;;;;;;;44.67;21.40;;;;;;;-3.45;62.04;99150.72;10364242;28;20060;-84
2022/12/13 18:31:32;;;;;;;43.85;22.65;;;;;;;-3.29;62.01;99162.38;10371004;28;20489;-83
2022/12/13 18:36:39;;;;;;;43.92;21.95;;;;;;;-3.12;61.33;99163.78;10369117;28;20061;-82
2022/12/13 18:41:41;;;;;;;39.15;20.65;;;;;;;-3.38;61.72;99159.97;10375958;28;20160;-83
2022/12/13 18:47:29;;;;;;;42.92;21.52;;;;;;;-3.55;62.11;99161.97;10381153;28;20049;-83
2022/12/13 18:52:39;;;;;;;41.20;20.90;;;;;;;-3.55;62.04;99161.97;10370396;28;20060;-83
2022/12/13 18:57:54;;;;;;;40.35;20.95;;;;;;;-3.61;62.32;99156.94;10376050;28;20454;-83
2022/12/13 19:03:01;;;;;;;39.03;20.65;;;;;;;-3.59;62.21;99161.19;10368184;28;20439;-83
2022/12/13 19:08:06;;;;;;;40.47;21.30;;;;;;;-3.53;62.13;99155.13;10364633;28;20057;-85
2022/12/13 19:13:13;;;;;;;41.90;21.35;;;;;;;-3.61;62.17;99139.06;10370649;28;20602;-83
2022/12/13 19:18:32;;;;;;;42.15;21.58;;;;;;;-3.59;62.37;99138.19;10371605;28;20081;-83
2022/12/13 19:23:56;;;;;;;43.60;21.43;;;;;;;-3.51;62.24;99143.16;10386132;28;20406;-84
2022/12/13 19:29:02;;;;;;;41.97;21.27;;;;;;;-3.54;62.20;99128.72;10370454;28;20049;-83
2022/12/13 19:34:16;;;;;;;39.15;20.10;;;;;;;-3.63;62.23;99122.91;10370171;28;20080;-83
2022/12/13 19:39:38;;;;;;;40.63;21.03;;;;;;;-3.52;62.10;99126.97;10375164;28;20057;-83
2022/12/13 19:44:43;;;;;;;38.70;20.83;;;;;;;-3.41;62.05;99108.91;10356468;28;20144;-83
2022/12/13 19:49:50;;;;;;;43.17;22.15;;;;;;;-3.45;61.98;99109.84;10351290;28;20057;-86
2022/12/13 20:01:40;;;;;;;42.78;21.15;;;;;;;-3.18;61.95;99097.41;10401843;28;20079;-86
2022/12/13 20:06:56;;;;;;;37.55;19.65;;;;;;;-3.10;61.78;99092.16;10384562;28;20144;-85
2022/12/13 20:12:04;;;;;;;39.67;20.42;;;;;;;-3.07;61.48;99090.38;10387898;28;20050;-85
2022/12/13 20:17:25;;;;;;;37.95;19.25;;;;;;;-3.20;61.39;99088.91;10386784;28;20131;-84
2022/12/13 20:22:32;;;;;;;33.65;18.50;;;;;;;-3.13;61.24;99069.19;10390788;28;20064;-85
2022/12/13 20:27:35;;;;;;;40.00;18.45;;;;;;;-3.21;61.07;99076.16;10396259;28;20142;-84
2022/12/13 20:32:36;;;;;;;37.75;18.42;;;;;;;-3.38;61.23;99073.06;10414570;28;20071;-85
2022/12/13 20:37:38;;;;;;;32.58;18.02;;;;;;;-3.47;61.40;99078.34;10396336;28;20067;-85
2022/12/13 20:42:40;;;;;;;37.60;18.30;;;;;;;-3.47;61.30;99063.00;10411581;28;20071;-84
2022/12/13 20:47:42;;;;;;;39.30;18.27;;;;;;;-3.47;61.32;99063.00;10396542;28;20146;-84
2022/12/13 20:52:44;;;;;;;35.13;18.50;;;;;;;-3.28;61.14;99054.16;10395921;28;20057;-85
2022/12/13 20:57:51;;;;;;;34.03;17.67;;;;;;;-3.18;61.12;99048.00;10415912;28;20060;-83
2022/12/13 21:02:53;;;;;;;30.13;17.10;;;;;;;-3.15;60.82;99050.47;10414404;28;20090;-84
2022/12/13 21:13:14;;;;;;;29.88;17.08;;;;;;;-2.98;60.84;99044.16;10415768;28;20108;-86
2022/12/13 21:18:16;;;;;;;31.90;17.00;;;;;;;-2.86;60.59;99043.09;10395700;28;20057;-86
2022/12/13 21:23:18;;;;;;;34.15;17.35;;;;;;;-2.88;60.55;99034.59;10406390;28;20061;-85
2022/12/13 21:28:25;;;;;;;29.27;16.27;;;;;;;-2.83;60.35;99022.56;10415474;28;20050;-84
2022/12/13 21:33:27;;;;;;;31.90;15.88;;;;;;;-2.93;59.99;99015.94;10438185;28;20057;-85
2022/12/13 21:38:30;;;;;;;29.05;16.58;;;;;;;-3.09;60.38;98987.28;10425750;28;20136;-84
2022/12/13 21:43:37;;;;;;;29.83;16.48;;;;;;;-3.20;60.39;98975.59;10415602;28;20052;-84
2022/12/13 21:48:40;;;;;;;31.95;17.38;;;;;;;-3.08;60.34;98960.00;10406075;28;20061;-84
2022/12/13 21:53:44;;;;;;;32.17;17.17;;;;;;;-3.16;60.21;98952.47;10404855;28;20071;-84
2022/12/13 22:04:06;;;;;;;27.27;15.25;;;;;;;-3.42;60.30;98941.06;10423369;28;20084;-84
2022/12/13 22:09:09;;;;;;;29.55;15.48;;;;;;;-3.54;60.64;98938.75;10404570;28;20049;-84
2022/12/13 22:14:10;;;;;;;27.08;15.18;;;;;;;-3.46;60.62;98917.28;10424618;28;20159;-84
2022/12/13 22:19:15;;;;;;;27.08;14.57;;;;;;;-3.53;60.70;98915.75;10422603;28;20054;-86
2022/12/13 22:24:17;;;;;;;26.13;14.95;;;;;;;-3.47;60.64;98913.06;10404734;28;20601;-86
2022/12/13 22:29:19;;;;;;;26.60;14.13;;;;;;;-3.41;60.53;98915.50;10403110;28;20056;-83
2022/12/13 22:34:21;;;;;;;26.52;14.55;;;;;;;-3.41;60.38;98904.44;10404000;28;20057;-84
2022/12/13 22:39:22;;;;;;;23.95;14.27;;;;;;;-3.37;60.33;98895.81;10402770;28;20051;-84
2022/12/13 22:44:24;;;;;;;25.63;14.90;;;;;;;-3.41;60.33;98899.31;10414652;28;20061;-86
2022/12/13 22:49:26;;;;;;;28.80;14.23;;;;;;;-3.54;60.55;98895.31;10420590;28;20049;-86
2022/12/13 22:54:28;;;;;;;25.38;13.52;;;;;;;-3.35;60.28;98901.75;10420333;28;20061;-84
2022/12/13 22:59:30;;;;;;;24.73;13.27;;;;;;;-3.36;60.31;98887.25;10400683;28;20053;-86
2022/12/13 23:04:32;;;;;;;23.30;12.18;;;;;;;-3.48;60.12;98878.16;10401211;28;20053;-86
2022/12/13 23:09:33;;;;;;;22.75;13.75;;;;;;;-3.53;60.48;98881.69;10401513;28;20057;-85
2022/12/13 23:14:35;;;;;;;23.25;12.48;;;;;;;-3.52;60.35;98883.34;10400786;28;20067;-86
2022/12/13 23:19:37;;;;;;;24.30;13.05;;;;;;;-3.51;60.20;98875.66;10421446;28;20056;-86
2022/12/13 23:24:56;;;;;;;21.85;12.60;;;;;;;-3.44;60.33;98864.44;10405426;28;20070;-86
2022/12/13 23:29:58;;;;;;;23.17;12.68;;;;;;;-3.57;60.12;98864.72;10419211;28;20507;-86
2022/12/13 23:34:59;;;;;;;22.77;12.65;;;;;;;-3.63;60.31;98864.84;10401781;28;20494;-86
2022/12/13 23:40:01;;;;;;;25.17;13.77;;;;;;;-3.59;60.43;98854.53;10401975;28;20063;-85
2022/12/13 23:45:03;;;;;;;23.27;12.85;;;;;;;-3.40;60.46;98840.50;10400443;28;20498;-86
2022/12/13 23:50:06;;;;;;;25.77;13.30;;;;;;;-3.24;60.19;98856.38;10401248;28;20053;-85
2022/12/13 23:55:08;;;;;;;22.73;13.32;;;;;;;-3.22;59.90;98844.38;10417501;28;20429;-85
